LFRO/LAI METAR and TAF weather

Enter ICAO airport designator
Station Type Date Time Source
LFRO METAR 2021/09/28 17:00 UTC NOAA

LFRO 281700Z AUTO 21011KT 6000 -RA BKN019/// BKN030/// BKN052/// ///CB 14/13 Q1015


Station Type Date Time Source
LFRO Decoded METAR 2021/09/28 17:00 UTC NOAA

Lannion / Servel, France (LFRO) 48-45N 003-28W
Sep 28, 2021 - 01:00 PM EDT / 2021.09.28 1700 UTC
Wind: from the SSW (210 degrees) at 13 MPH (11 KT):0
Visibility: 3 mile(s):0
Sky conditions: mostly cloudy
Weather: light rain; Cumulonimbus clouds observed
Temperature: 57 F (14 C)
Dew Point: 55 F (13 C)
Relative Humidity: 93%
Pressure (altimeter): 29.97 in. Hg (1015 hPa)
ob: LFRO 281700Z AUTO 21011KT 6000 -RA BKN019/// BKN030/// BKN052/// ///CB 14/13 Q1015
cycle: 17

Station Type Date Time Source
LFRO TAF 2019/05/15 19:06 UTC NOAA

TAF LFRO 151936Z 1519/1612 CNL

Example: see airport list